Air Navigation Services of Czech Republic
Airport: LKNA Updated:  20.09.2021 17:59:28  UTC
 METAR LKNA 20.09. 18:00 ...
METAR LKNA 201800Z 32007KT CAVOK 11/05 Q1021 NOSIG RMK BLU BLU=
 TAF LKNA 20.09. 17:00 COR
TAF COR LKNA 201700Z 2018/2118 33008KT CAVOK      BECMG 2110/2112 BKN035      BECMG 2114/2116 CAVOK=